createdAt,value
2019-05-17T00:00:07.424Z,58.89
2019-05-17T00:03:17.081Z,58.54
2019-05-17T00:06:23.287Z,58.99
2019-05-17T00:09:29.711Z,58.56
2019-05-17T00:12:36.889Z,58.91
2019-05-17T00:15:43.369Z,58.85
2019-05-17T00:18:49.904Z,58.72
2019-05-17T00:21:56.774Z,59.36
2019-05-17T00:25:03.348Z,58.83
2019-05-17T00:28:10.314Z,60.12
2019-05-17T00:31:18.052Z,60.50
2019-05-17T00:34:24.394Z,60.26
2019-05-17T00:37:30.775Z,60.94
2019-05-17T00:40:37.149Z,61.25
2019-05-17T00:43:43.706Z,61.38
2019-05-17T00:46:50.103Z,62.12
2019-05-17T00:49:56.997Z,62.28
2019-05-17T00:53:03.593Z,61.71
2019-05-17T00:56:10.120Z,62.03
2019-05-17T00:59:17.033Z,63.71
2019-05-17T01:02:23.854Z,63.97
2019-05-17T01:05:30.191Z,63.56
2019-05-17T01:08:37.341Z,64.58
2019-05-17T01:11:43.944Z,64.04
2019-05-17T01:14:50.313Z,65.28
2019-05-17T01:17:56.581Z,64.72
2019-05-17T01:21:03.070Z,65.51
2019-05-17T01:24:09.489Z,65.89
2019-05-17T01:27:17.199Z,65.66
2019-05-17T01:30:26.496Z,66.74
2019-05-17T01:33:32.924Z,67.02
2019-05-17T01:36:39.390Z,66.96
2019-05-17T01:39:46.824Z,67.02
2019-05-17T01:42:53.342Z,67.82
2019-05-17T01:45:59.843Z,67.23
2019-05-17T01:49:06.870Z,67.49
2019-05-17T01:52:13.593Z,67.76
2019-05-17T01:55:19.959Z,67.13
2019-05-17T01:58:26.988Z,67.52
2019-05-17T02:01:33.574Z,68.35
2019-05-17T02:04:40.011Z,67.91
2019-05-17T02:07:46.774Z,68.04
2019-05-17T02:10:53.358Z,68.65
2019-05-17T02:13:59.734Z,67.87
2019-05-17T02:17:06.874Z,67.58
2019-05-17T02:20:16.850Z,68.32
2019-05-17T02:23:22.902Z,68.39
2019-05-17T02:26:29.227Z,69.25
2019-05-17T02:29:35.630Z,69.42
2019-05-17T02:32:43.433Z,68.81
2019-05-17T02:35:53.374Z,69.14
2019-05-17T02:38:58.119Z,69.29
2019-05-17T02:42:04.502Z,69.63
2019-05-17T02:45:13.334Z,69.52
2019-05-17T02:48:22.943Z,69.76
2019-05-17T02:51:27.312Z,69.52
2019-05-17T02:54:33.910Z,71.78
2019-05-17T02:57:43.223Z,70.87
2019-05-17T03:00:48.327Z,70.71
2019-05-17T03:03:54.688Z,69.75
2019-05-17T03:07:03.831Z,69.63
2019-05-17T03:10:18.370Z,69.92
2019-05-17T03:13:18.191Z,70.38
2019-05-17T03:16:24.628Z,70.08
2019-05-17T03:19:32.723Z,70.06
2019-05-17T03:22:38.960Z,70.59
2019-05-17T03:25:45.392Z,70.00
2019-05-17T03:28:53.773Z,69.75
2019-05-17T03:32:07.444Z,69.50
2019-05-17T03:35:15.567Z,69.88
2019-05-17T03:38:17.200Z,68.81
2019-05-17T03:41:28.673Z,69.37
2019-05-17T03:44:33.297Z,68.25
2019-05-17T03:47:39.811Z,69.25
2019-05-17T03:50:46.676Z,69.32
2019-05-17T03:53:53.298Z,69.22
2019-05-17T03:57:02.672Z,69.69
2019-05-17T04:00:08.003Z,69.14
2019-05-17T04:03:14.788Z,69.52
2019-05-17T04:06:23.872Z,67.58
2019-05-17T04:09:29.237Z,68.21
2019-05-17T04:12:35.639Z,68.15
2019-05-17T04:15:43.285Z,68.32
2019-05-17T04:18:49.923Z,68.04
2019-05-17T04:21:56.422Z,67.61
2019-05-17T04:25:03.313Z,67.58
2019-05-17T04:28:13.391Z,67.17
2019-05-17T04:31:18.024Z,67.16
2019-05-17T04:34:24.466Z,67.33
2019-05-17T04:37:33.937Z,68.24
2019-05-17T04:40:42.897Z,67.28
2019-05-17T04:43:47.651Z,67.33
2019-05-17T04:46:54.121Z,67.86
2019-05-17T04:50:03.599Z,66.00
2019-05-17T04:53:08.777Z,63.54
2019-05-17T04:56:15.216Z,64.96
2019-05-17T04:59:24.263Z,64.41
2019-05-17T05:02:32.784Z,65.87
2019-05-17T05:05:38.192Z,65.32
2019-05-17T05:08:44.546Z,66.73
2019-05-17T05:12:00.378Z,64.18
2019-05-17T05:14:59.299Z,65.48
2019-05-17T05:18:05.997Z,65.33
2019-05-17T05:21:12.419Z,65.53
2019-05-17T05:24:18.864Z,63.86
2019-05-17T05:27:25.325Z,63.90
2019-05-17T05:30:32.115Z,64.95
2019-05-17T05:33:38.366Z,63.62
2019-05-17T05:36:44.940Z,61.63
2019-05-17T05:39:54.113Z,63.18
2019-05-17T05:43:02.130Z,63.65
2019-05-17T05:46:07.917Z,64.35
2019-05-17T05:49:14.343Z,64.27
2019-05-17T05:52:21.912Z,63.85
2019-05-17T05:55:29.156Z,62.89
2019-05-17T05:58:35.517Z,63.42
2019-05-17T06:01:42.302Z,61.70
2019-05-17T06:04:48.768Z,61.77
2019-05-17T06:07:55.361Z,62.60
2019-05-17T06:11:02.410Z,64.92
2019-05-17T06:14:08.932Z,63.37
2019-05-17T06:17:16.878Z,62.95
2019-05-17T06:20:23.588Z,62.90
2019-05-17T06:23:31.545Z,61.89
2019-05-17T06:26:38.362Z,61.43
2019-05-17T06:29:44.861Z,61.89
2019-05-17T06:32:51.848Z,61.13
2019-05-17T06:35:58.210Z,62.14
2019-05-17T06:39:06.789Z,62.06
2019-05-17T06:42:14.033Z,60.21
2019-05-17T06:45:22.095Z,59.65
2019-05-17T06:48:28.856Z,60.30
2019-05-17T06:51:35.542Z,60.25
2019-05-17T06:54:41.990Z,59.77
2019-05-17T06:57:48.564Z,59.79
2019-05-17T07:00:54.935Z,58.85
2019-05-17T07:04:01.355Z,58.60
2019-05-17T07:07:25.817Z,58.57
2019-05-17T07:10:32.469Z,58.40
2019-05-17T07:13:39.640Z,58.50
2019-05-17T07:16:47.239Z,58.76
2019-05-17T07:19:53.791Z,58.76
2019-05-17T07:23:00.627Z,58.29
2019-05-17T07:26:09.214Z,57.77
2019-05-17T07:29:15.561Z,57.78
2019-05-17T07:32:21.969Z,57.34
2019-05-17T07:35:30.007Z,56.60
2019-05-17T07:38:36.605Z,57.05
2019-05-17T07:41:43.135Z,56.93
2019-05-17T07:44:49.875Z,55.92
2019-05-17T07:48:00.018Z,56.06
2019-05-17T07:51:05.712Z,55.21
2019-05-17T07:54:12.262Z,54.80
2019-05-17T07:57:20.727Z,54.05
2019-05-17T08:00:27.180Z,53.81
2019-05-17T08:03:33.528Z,51.84
2019-05-17T08:06:40.488Z,51.02
2019-05-17T08:09:47.368Z,50.20
2019-05-17T08:12:54.513Z,48.76
2019-05-17T08:16:01.840Z,48.76
2019-05-17T08:19:09.708Z,48.59
2019-05-17T08:22:16.347Z,47.74
2019-05-17T08:25:23.012Z,47.22
2019-05-17T08:28:31.340Z,46.28
2019-05-17T08:31:40.470Z,46.21
2019-05-17T08:34:49.507Z,45.70
2019-05-17T08:37:55.309Z,45.83
2019-05-17T08:41:02.791Z,44.23
2019-05-17T08:44:10.034Z,45.37
2019-05-17T08:47:20.705Z,45.28
2019-05-17T08:50:26.093Z,44.08
2019-05-17T08:53:32.549Z,43.86
2019-05-17T08:56:40.174Z,43.16
2019-05-17T08:59:49.782Z,42.90
2019-05-17T09:02:56.697Z,42.44
2019-05-17T09:06:03.234Z,42.41
2019-05-17T09:09:10.133Z,42.27
2019-05-17T09:12:16.654Z,41.35
2019-05-17T09:15:23.201Z,42.22
2019-05-17T09:18:30.198Z,41.14
2019-05-17T09:21:36.710Z,41.89
2019-05-17T09:24:43.071Z,42.47
2019-05-17T09:27:50.161Z,42.12
2019-05-17T09:30:56.830Z,42.12
2019-05-17T09:34:03.321Z,42.01
2019-05-17T09:37:10.513Z,41.28
2019-05-17T09:40:19.849Z,40.25
2019-05-17T09:43:25.796Z,41.29
2019-05-17T09:46:33.135Z,39.68
2019-05-17T09:49:39.926Z,40.99
2019-05-17T09:52:49.253Z,40.36
2019-05-17T09:55:55.044Z,40.66
2019-05-17T09:59:01.593Z,39.44
2019-05-17T10:02:09.491Z,38.32
2019-05-17T10:05:16.381Z,39.76
2019-05-17T10:08:22.941Z,40.05
2019-05-17T10:11:30.730Z,40.18
2019-05-17T10:14:38.915Z,40.17
2019-05-17T10:17:45.872Z,41.24
2019-05-17T10:20:52.556Z,41.36
2019-05-17T10:24:00.188Z,40.04
2019-05-17T10:27:06.723Z,40.23
2019-05-17T10:30:13.378Z,40.11
2019-05-17T10:33:20.157Z,40.65
2019-05-17T10:36:29.275Z,40.08
2019-05-17T10:39:35.300Z,39.37
2019-05-17T10:42:42.033Z,39.52
2019-05-17T10:45:48.481Z,39.64
2019-05-17T10:48:55.205Z,39.04
2019-05-17T10:52:01.845Z,38.82
2019-05-17T10:55:10.462Z,39.56
2019-05-17T10:58:21.025Z,39.83
2019-05-17T11:01:26.733Z,38.45
2019-05-17T11:04:34.478Z,38.00
2019-05-17T11:07:42.109Z,38.74
2019-05-17T11:10:50.121Z,38.36
2019-05-17T11:13:57.591Z,36.80
2019-05-17T11:17:04.102Z,37.32
2019-05-17T11:20:11.467Z,37.52
2019-05-17T11:23:18.915Z,35.87
2019-05-17T11:26:25.515Z,37.42
2019-05-17T11:29:32.012Z,35.49
2019-05-17T11:32:38.707Z,36.13
2019-05-17T11:35:45.120Z,35.73
2019-05-17T11:38:51.616Z,35.69
2019-05-17T11:41:58.076Z,35.40
2019-05-17T11:45:05.000Z,34.79
2019-05-17T11:48:11.570Z,34.85
2019-05-17T11:51:18.069Z,33.75
2019-05-17T11:54:24.808Z,33.07
2019-05-17T11:57:31.542Z,32.96
2019-05-17T12:00:38.049Z,32.96
2019-05-17T12:03:44.479Z,32.96
2019-05-17T12:06:50.921Z,34.08
2019-05-17T12:09:57.568Z,32.24
2019-05-17T12:13:04.034Z,32.91
2019-05-17T12:16:10.603Z,34.17
2019-05-17T12:19:17.079Z,32.69
2019-05-17T12:22:23.541Z,33.07
2019-05-17T12:25:30.021Z,33.13
2019-05-17T12:28:36.685Z,32.36
2019-05-17T12:31:43.147Z,32.39
2019-05-17T12:34:49.765Z,32.15
2019-05-17T12:37:56.265Z,31.28
2019-05-17T12:41:02.805Z,31.31
2019-05-17T12:44:09.344Z,30.05
2019-05-17T12:47:16.159Z,30.44
2019-05-17T12:50:22.726Z,29.17
2019-05-17T12:53:29.171Z,29.41
2019-05-17T12:56:35.733Z,30.41
2019-05-17T12:59:42.598Z,29.30
2019-05-17T13:02:48.998Z,28.03
2019-05-17T13:05:55.516Z,27.63
2019-05-17T13:09:03.087Z,27.14
2019-05-17T13:12:10.784Z,27.42
2019-05-17T13:15:17.746Z,28.08
2019-05-17T13:18:24.232Z,28.48
2019-05-17T13:21:30.770Z,26.56
2019-05-17T13:24:39.442Z,26.51
2019-05-17T13:27:46.348Z,26.45
2019-05-17T13:30:53.949Z,27.06
2019-05-17T13:34:00.418Z,26.84
2019-05-17T13:37:07.054Z,27.90
2019-05-17T13:40:13.830Z,26.66
2019-05-17T13:43:20.926Z,26.81
2019-05-17T13:46:33.025Z,26.81
2019-05-17T13:49:36.749Z,26.57
2019-05-17T13:52:44.247Z,26.90
2019-05-17T13:55:51.686Z,26.50
2019-05-17T13:58:58.623Z,26.29
2019-05-17T14:02:05.269Z,25.77
2019-05-17T14:05:11.771Z,25.60
2019-05-17T14:08:18.228Z,25.83
2019-05-17T14:11:24.669Z,25.91
2019-05-17T14:14:31.341Z,25.76
2019-05-17T14:17:37.882Z,27.08
2019-05-17T14:20:44.502Z,26.95
2019-05-17T14:23:52.024Z,27.54
2019-05-17T14:26:58.473Z,27.71
2019-05-17T14:30:05.445Z,27.56
2019-05-17T14:33:12.057Z,27.72
2019-05-17T14:36:18.473Z,26.91
2019-05-17T14:39:25.034Z,25.86
2019-05-17T14:42:31.456Z,24.24
2019-05-17T14:45:38.011Z,25.96
2019-05-17T14:48:44.488Z,24.57
2019-05-17T14:51:51.061Z,24.69
2019-05-17T14:54:57.528Z,23.78
2019-05-17T14:58:04.052Z,23.61
2019-05-17T15:01:10.888Z,23.89
2019-05-17T15:04:17.628Z,24.01
2019-05-17T15:07:24.087Z,23.92
2019-05-17T15:10:30.606Z,23.80
2019-05-17T15:13:37.031Z,24.45
2019-05-17T15:16:43.584Z,25.13
2019-05-17T15:19:51.426Z,25.24
2019-05-17T15:22:58.233Z,25.20
2019-05-17T15:26:05.163Z,24.90
2019-05-17T15:29:11.752Z,25.04
2019-05-17T15:32:18.185Z,24.94
2019-05-17T15:35:24.673Z,25.05
2019-05-17T15:38:31.147Z,24.45
2019-05-17T15:41:37.747Z,25.14
2019-05-17T15:44:44.289Z,25.90
2019-05-17T15:47:51.648Z,25.01
2019-05-17T15:50:58.111Z,25.51
2019-05-17T15:54:05.963Z,25.73
2019-05-17T15:57:12.609Z,25.60
2019-05-17T16:00:19.938Z,25.77
2019-05-17T16:03:26.806Z,26.19
2019-05-17T16:06:33.618Z,25.30
2019-05-17T16:09:40.178Z,25.30
2019-05-17T16:13:00.846Z,25.56
2019-05-17T16:15:54.948Z,26.03
2019-05-17T16:19:01.477Z,25.48
2019-05-17T16:22:08.679Z,25.79
2019-05-17T16:25:17.579Z,25.63
2019-05-17T16:28:23.989Z,25.87
2019-05-17T16:31:30.777Z,25.59
2019-05-17T16:34:39.648Z,25.85
2019-05-17T16:37:46.606Z,26.15
2019-05-17T16:40:53.122Z,26.13
2019-05-17T16:44:00.580Z,27.11
2019-05-17T16:47:07.097Z,27.11
2019-05-17T16:50:13.638Z,27.67
2019-05-17T16:53:20.422Z,27.42
2019-05-17T16:56:27.408Z,27.70
2019-05-17T16:59:34.369Z,28.26
2019-05-17T17:02:41.493Z,28.08
2019-05-17T17:05:48.403Z,28.64
2019-05-17T17:08:55.531Z,28.64
2019-05-17T17:12:03.499Z,29.34
2019-05-17T17:15:10.738Z,29.27
2019-05-17T17:18:17.601Z,29.87
2019-05-17T17:21:24.677Z,30.47
2019-05-17T17:24:32.012Z,30.56
2019-05-17T17:27:41.303Z,31.23
2019-05-17T17:30:48.218Z,31.75
2019-05-17T17:33:54.905Z,32.18
2019-05-17T17:37:01.378Z,32.38
2019-05-17T17:40:08.670Z,33.11
2019-05-17T17:43:16.114Z,32.92
2019-05-17T17:46:22.837Z,33.33
2019-05-17T17:49:29.315Z,33.29
2019-05-17T17:52:35.770Z,33.29
2019-05-17T17:55:42.216Z,34.13
2019-05-17T17:58:48.824Z,34.18
2019-05-17T18:01:55.240Z,34.13
2019-05-17T18:05:04.624Z,34.60
2019-05-17T18:08:20.977Z,35.03
2019-05-17T18:11:29.438Z,35.03
2019-05-17T18:14:40.205Z,35.46
2019-05-17T18:17:46.766Z,35.91
2019-05-17T18:20:56.590Z,35.37
2019-05-17T18:24:11.918Z,33.69
2019-05-17T18:27:18.705Z,32.95
2019-05-17T18:30:29.028Z,33.46
2019-05-17T18:33:41.260Z,33.83
2019-05-17T18:36:48.900Z,33.42
2019-05-17T18:39:59.869Z,33.83
2019-05-17T18:43:07.935Z,33.52
2019-05-17T18:46:14.884Z,33.75
2019-05-17T18:49:23.670Z,33.84
2019-05-17T18:52:30.124Z,34.06
2019-05-17T18:55:42.313Z,34.12
2019-05-17T18:58:48.727Z,34.12
2019-05-17T19:01:56.820Z,34.56
2019-05-17T19:05:08.582Z,34.75
2019-05-17T19:08:16.202Z,34.60
2019-05-17T19:11:23.981Z,35.64
2019-05-17T19:15:00.691Z,35.20
2019-05-17T19:18:10.511Z,35.62
2019-05-17T19:21:20.213Z,36.68
2019-05-17T19:24:26.660Z,36.68
2019-05-17T19:27:33.214Z,37.38
2019-05-17T19:30:39.923Z,37.79
2019-05-17T19:33:49.384Z,38.28
2019-05-17T19:36:56.882Z,38.38
2019-05-17T19:40:05.826Z,38.87
2019-05-17T19:43:12.161Z,39.70
2019-05-17T19:46:18.669Z,39.88
2019-05-17T19:49:24.953Z,40.48
2019-05-17T19:52:31.493Z,41.11
2019-05-17T19:55:38.150Z,41.54
2019-05-17T19:58:46.429Z,41.60
2019-05-17T20:01:53.036Z,42.59
2019-05-17T20:05:05.462Z,42.63
2019-05-17T20:08:11.854Z,43.24
2019-05-17T20:11:33.400Z,44.11
2019-05-17T20:14:26.867Z,44.06
2019-05-17T20:17:33.486Z,44.43
2019-05-17T20:20:40.088Z,44.63
2019-05-17T20:23:49.244Z,45.64
2019-05-17T20:26:55.548Z,45.79
2019-05-17T20:30:02.709Z,46.69
2019-05-17T20:33:10.593Z,46.16
2019-05-17T20:36:18.863Z,46.60
2019-05-17T20:39:26.402Z,46.82
2019-05-17T20:42:33.345Z,47.54
2019-05-17T20:45:42.927Z,47.54
2019-05-17T20:48:49.406Z,47.13
2019-05-17T20:52:05.615Z,47.21
2019-05-17T20:55:11.786Z,47.73
2019-05-17T20:58:19.904Z,48.01
2019-05-17T21:01:28.897Z,48.59
2019-05-17T21:04:34.399Z,48.35
2019-05-17T21:07:42.728Z,48.75
2019-05-17T21:10:49.083Z,49.03
2019-05-17T21:13:55.638Z,49.27
2019-05-17T21:17:02.058Z,49.23
2019-05-17T21:20:09.476Z,49.39
2019-05-17T21:23:16.164Z,49.86
2019-05-17T21:26:22.808Z,50.20
2019-05-17T21:29:29.341Z,50.15
2019-05-17T21:32:37.486Z,50.25
2019-05-17T21:35:44.513Z,50.45
2019-05-17T21:38:51.033Z,50.45
2019-05-17T21:41:57.503Z,50.57
2019-05-17T21:45:04.050Z,50.74
2019-05-17T21:48:10.430Z,50.72
2019-05-17T21:51:16.885Z,51.28
2019-05-17T21:54:23.293Z,50.60
2019-05-17T21:57:29.999Z,50.98
2019-05-17T22:01:20.699Z,50.98
2019-05-17T22:04:27.367Z,51.01
2019-05-17T22:07:34.244Z,51.01
2019-05-17T22:10:41.871Z,50.97
2019-05-17T22:13:48.592Z,50.71
2019-05-17T22:16:55.583Z,51.00
2019-05-17T22:20:02.329Z,51.14
2019-05-17T22:23:15.340Z,51.29
2019-05-17T22:26:33.702Z,51.79
2019-05-17T22:29:41.420Z,51.44
2019-05-17T22:32:48.040Z,51.52
2019-05-17T22:36:01.253Z,51.52
2019-05-17T22:39:14.500Z,51.30
2019-05-17T22:42:29.176Z,51.13
2019-05-17T22:45:35.741Z,51.21
2019-05-17T22:48:42.649Z,51.46
2019-05-17T22:51:49.103Z,51.48
2019-05-17T22:54:55.752Z,51.71
2019-05-17T22:58:02.076Z,51.80
2019-05-17T23:01:08.968Z,51.76
2019-05-17T23:04:15.357Z,52.01
2019-05-17T23:07:21.866Z,52.00
2019-05-17T23:10:28.754Z,51.89
2019-05-17T23:13:35.426Z,52.53
2019-05-17T23:16:50.897Z,51.99
2019-05-17T23:19:50.408Z,52.02
2019-05-17T23:22:56.894Z,52.84
2019-05-17T23:26:03.514Z,52.84
2019-05-17T23:29:10.081Z,52.77
2019-05-17T23:32:16.509Z,52.41
2019-05-17T23:35:23.093Z,52.26
2019-05-17T23:38:30.014Z,52.23
2019-05-17T23:41:38.806Z,52.07
2019-05-17T23:44:45.327Z,52.46
2019-05-17T23:47:51.877Z,52.47
2019-05-17T23:50:58.367Z,52.89
2019-05-17T23:54:05.882Z,52.52
2019-05-17T23:57:12.393Z,52.60
